createdAt,value
2018-06-18T00:00:02.776Z,1.27
2018-06-18T00:02:30.833Z,1.07
2018-06-18T00:04:58.476Z,1.23
2018-06-18T00:07:26.074Z,1.27
2018-06-18T00:09:53.692Z,1.30
2018-06-18T00:12:21.308Z,1.40
2018-06-18T00:14:49.026Z,1.30
2018-06-18T00:17:16.805Z,1.23
2018-06-18T00:19:44.446Z,1.10
2018-06-18T00:22:16.298Z,1.40
2018-06-18T00:24:44.889Z,1.47
2018-06-18T00:27:12.477Z,1.50
2018-06-18T00:29:40.049Z,1.20
2018-06-18T00:32:07.992Z,1.50
2018-06-18T00:34:35.594Z,1.40
2018-06-18T00:37:03.476Z,1.30
2018-06-18T00:39:31.073Z,1.40
2018-06-18T00:41:58.695Z,1.43
2018-06-18T00:44:26.338Z,1.50
2018-06-18T00:46:54.035Z,1.40
2018-06-18T00:49:21.636Z,1.60
2018-06-18T00:51:49.290Z,1.53
2018-06-18T00:54:16.937Z,1.80
2018-06-18T00:56:44.644Z,1.60
2018-06-18T00:59:12.241Z,1.60
2018-06-18T01:01:39.833Z,1.73
2018-06-18T01:04:08.102Z,1.63
2018-06-18T01:06:35.745Z,1.60
2018-06-18T01:09:07.256Z,1.63
2018-06-18T01:11:34.887Z,1.67
2018-06-18T01:14:02.531Z,1.70
2018-06-18T01:16:30.143Z,1.70
2018-06-18T01:18:57.676Z,1.40
2018-06-18T01:21:25.269Z,1.67
2018-06-18T01:24:01.157Z,1.80
2018-06-18T01:26:28.804Z,2.00
2018-06-18T01:28:56.673Z,1.80
2018-06-18T01:31:24.375Z,1.40
2018-06-18T01:33:56.262Z,2.00
2018-06-18T01:36:23.869Z,1.80
2018-06-18T01:38:51.456Z,1.90
2018-06-18T01:41:19.064Z,1.53
2018-06-18T01:43:46.654Z,1.90
2018-06-18T01:46:14.254Z,1.80
2018-06-18T01:48:41.929Z,1.60
2018-06-18T01:51:09.504Z,1.73
2018-06-18T01:53:37.135Z,1.67
2018-06-18T01:56:04.725Z,1.70
2018-06-18T01:58:32.336Z,2.00
2018-06-18T02:00:59.927Z,1.87
2018-06-18T02:03:27.536Z,1.70
2018-06-18T02:05:55.453Z,2.00
2018-06-18T02:08:23.022Z,1.97
2018-06-18T02:10:50.595Z,1.90
2018-06-18T02:13:18.268Z,2.00
2018-06-18T02:15:45.882Z,2.20
2018-06-18T02:18:13.468Z,1.77
2018-06-18T02:20:41.072Z,2.10
2018-06-18T02:23:08.675Z,2.23
2018-06-18T02:25:36.304Z,2.10
2018-06-18T02:28:09.629Z,2.00
2018-06-18T02:30:42.989Z,1.97
2018-06-18T02:33:16.321Z,2.13
2018-06-18T02:35:49.880Z,2.30
2018-06-18T02:38:23.274Z,2.13
2018-06-18T02:40:50.941Z,1.83
2018-06-18T02:43:18.631Z,2.00
2018-06-18T02:45:46.459Z,2.20
2018-06-18T02:48:14.075Z,2.07
2018-06-18T02:50:42.300Z,2.10
2018-06-18T02:53:09.940Z,2.10
2018-06-18T02:55:39.922Z,1.90
2018-06-18T02:58:07.545Z,2.00
2018-06-18T03:00:35.213Z,2.10
2018-06-18T03:03:02.905Z,2.03
2018-06-18T03:05:30.525Z,2.10
2018-06-18T03:07:58.217Z,2.23
2018-06-18T03:10:25.856Z,2.00
2018-06-18T03:12:53.549Z,2.30
2018-06-18T03:15:21.242Z,2.40
2018-06-18T03:17:48.805Z,2.27
2018-06-18T03:20:22.292Z,2.57
2018-06-18T03:22:55.832Z,2.10
2018-06-18T03:27:37.100Z,1.90
2018-06-18T03:30:04.940Z,1.90
2018-06-18T03:32:32.576Z,1.80
2018-06-18T03:35:00.176Z,2.00
2018-06-18T03:37:27.778Z,2.07
2018-06-18T03:39:55.510Z,2.23
2018-06-18T03:42:23.134Z,2.67
2018-06-18T03:45:02.235Z,2.40
2018-06-18T03:47:30.131Z,2.73
2018-06-18T03:49:57.780Z,2.57
2018-06-18T03:52:25.363Z,2.30
2018-06-18T03:54:59.096Z,2.27
2018-06-18T03:57:26.840Z,2.40
2018-06-18T03:59:54.427Z,2.37
2018-06-18T04:04:41.957Z,2.30
2018-06-18T04:07:15.332Z,2.20
2018-06-18T04:09:48.667Z,2.60
2018-06-18T04:12:16.318Z,2.40
2018-06-18T04:14:43.952Z,2.57
2018-06-18T04:17:11.594Z,2.73
2018-06-18T04:19:39.229Z,2.83
2018-06-18T04:22:06.819Z,2.63
2018-06-18T04:24:34.395Z,2.80
2018-06-18T04:27:02.009Z,2.60
2018-06-18T04:29:29.636Z,2.83
2018-06-18T04:31:57.303Z,2.70
2018-06-18T04:34:30.653Z,2.47
2018-06-18T04:36:58.806Z,2.53
2018-06-18T04:39:26.888Z,2.67
2018-06-18T04:42:00.372Z,2.70
2018-06-18T04:44:33.886Z,2.50
2018-06-18T04:47:07.447Z,2.87
2018-06-18T04:49:40.790Z,2.77
2018-06-18T04:52:08.512Z,2.77
2018-06-18T04:54:36.231Z,3.00
2018-06-18T04:57:03.882Z,2.70
2018-06-18T04:59:33.689Z,2.67
2018-06-18T05:02:03.214Z,2.57
2018-06-18T05:04:30.817Z,2.50
2018-06-18T05:06:58.467Z,2.87
2018-06-18T05:09:35.215Z,2.20
2018-06-18T05:12:02.859Z,2.83
2018-06-18T05:14:31.054Z,2.40
2018-06-18T05:16:58.612Z,2.10
2018-06-18T05:19:26.212Z,2.30
2018-06-18T05:21:53.806Z,2.57
2018-06-18T05:24:21.400Z,2.30
2018-06-18T05:26:51.895Z,2.20
2018-06-18T05:29:22.291Z,2.50
2018-06-18T05:31:49.921Z,2.90
2018-06-18T05:34:20.806Z,2.37
2018-06-18T05:36:50.862Z,2.40
2018-06-18T05:39:18.500Z,2.27
2018-06-18T05:41:46.132Z,2.60
2018-06-18T05:44:13.805Z,2.57
2018-06-18T05:46:41.406Z,2.30
2018-06-18T05:49:09.045Z,2.37
2018-06-18T05:51:36.666Z,2.47
2018-06-18T05:54:04.297Z,2.93
2018-06-18T05:56:31.941Z,2.57
2018-06-18T05:58:59.596Z,2.57
2018-06-18T06:01:27.268Z,2.47
2018-06-18T06:03:55.208Z,2.27
2018-06-18T06:06:22.859Z,2.40
2018-06-18T06:08:50.549Z,2.57
2018-06-18T06:11:18.184Z,2.47
2018-06-18T06:13:45.788Z,2.47
2018-06-18T06:23:53.997Z,2.40
2018-06-18T06:26:21.640Z,1.67
2018-06-18T06:28:49.303Z,2.67
2018-06-18T06:31:16.962Z,2.20
2018-06-18T06:33:44.564Z,2.77
2018-06-18T06:36:12.748Z,2.60
2018-06-18T06:38:40.365Z,2.70
2018-06-18T06:41:09.422Z,1.73
2018-06-18T06:43:37.000Z,1.97
2018-06-18T06:46:04.613Z,1.80
2018-06-18T06:48:33.065Z,2.40
2018-06-18T06:51:00.680Z,1.90
2018-06-18T06:53:28.269Z,1.87
2018-06-18T06:55:55.932Z,1.70
2018-06-18T06:58:23.527Z,1.50
2018-06-18T07:00:51.113Z,1.67
2018-06-18T07:03:18.733Z,1.33
2018-06-18T07:05:46.374Z,1.53
2018-06-18T07:08:13.978Z,1.23
2018-06-18T07:10:41.583Z,1.20
2018-06-18T07:13:09.167Z,1.13
2018-06-18T07:15:36.795Z,1.40
2018-06-18T07:18:04.641Z,1.43
2018-06-18T07:20:32.500Z,1.40
2018-06-18T07:23:00.155Z,1.40
2018-06-18T07:25:27.760Z,1.73
2018-06-18T07:27:55.417Z,1.40
2018-06-18T07:30:23.095Z,1.30
2018-06-18T07:32:50.652Z,1.50
2018-06-18T07:35:18.279Z,1.60
2018-06-18T07:37:45.845Z,1.60
2018-06-18T07:40:13.441Z,1.60
2018-06-18T07:42:41.000Z,1.57
2018-06-18T07:45:08.665Z,1.67
2018-06-18T07:47:36.333Z,1.50
2018-06-18T07:50:03.968Z,1.70
2018-06-18T07:52:31.710Z,1.47
2018-06-18T07:54:59.346Z,1.57
2018-06-18T07:57:26.971Z,1.63
2018-06-18T07:59:54.576Z,1.47
2018-06-18T08:02:22.212Z,1.57
2018-06-18T08:04:49.848Z,1.63
2018-06-18T08:07:17.475Z,1.60
2018-06-18T08:09:45.142Z,1.47
2018-06-18T08:12:12.734Z,1.50
2018-06-18T08:14:40.356Z,1.33
2018-06-18T08:17:08.010Z,1.40
2018-06-18T08:19:35.687Z,1.30
2018-06-18T08:22:03.301Z,1.27
2018-06-18T08:24:30.982Z,1.03
2018-06-18T08:26:58.650Z,1.57
2018-06-18T08:29:26.224Z,1.20
2018-06-18T08:31:53.867Z,1.40
2018-06-18T08:34:21.488Z,1.57
2018-06-18T08:36:49.158Z,1.20
2018-06-18T08:39:16.785Z,1.23
2018-06-18T08:41:44.405Z,1.13
2018-06-18T08:44:12.094Z,1.80
2018-06-18T08:46:39.764Z,1.20
2018-06-18T08:49:08.314Z,1.63
2018-06-18T08:51:41.851Z,1.90
2018-06-18T08:54:16.055Z,1.50
2018-06-18T08:56:49.421Z,1.80
2018-06-18T08:59:22.837Z,1.73
2018-06-18T09:01:50.470Z,2.27
2018-06-18T09:04:23.925Z,1.60
2018-06-18T09:06:51.571Z,1.80
2018-06-18T09:09:19.148Z,2.20
2018-06-18T09:11:46.719Z,1.83
2018-06-18T09:14:14.277Z,2.00
2018-06-18T09:16:41.871Z,2.13
2018-06-18T09:19:09.502Z,1.90
2018-06-18T09:21:37.116Z,2.37
2018-06-18T09:24:04.914Z,2.20
2018-06-18T09:26:32.480Z,2.10
2018-06-18T09:29:00.083Z,2.57
2018-06-18T09:31:27.684Z,2.13
2018-06-18T09:33:55.264Z,2.37
2018-06-18T09:36:22.939Z,2.43
2018-06-18T09:38:50.549Z,1.93
2018-06-18T09:41:18.205Z,2.10
2018-06-18T09:43:45.837Z,2.47
2018-06-18T09:46:13.485Z,2.07
2018-06-18T09:48:46.843Z,1.77
2018-06-18T09:51:20.363Z,1.90
2018-06-18T09:53:53.801Z,1.70
2018-06-18T09:57:29.085Z,1.97
2018-06-18T10:00:00.083Z,1.43
2018-06-18T10:02:28.299Z,1.20
2018-06-18T10:04:57.100Z,1.47
2018-06-18T10:07:24.902Z,1.97
2018-06-18T10:09:52.769Z,1.90
2018-06-18T10:12:20.340Z,1.50
2018-06-18T10:14:47.919Z,1.50
2018-06-18T10:17:15.782Z,1.57
2018-06-18T10:19:43.392Z,1.60
2018-06-18T10:22:11.625Z,1.40
2018-06-18T10:24:39.238Z,1.63
2018-06-18T10:27:06.804Z,1.60
2018-06-18T10:29:34.616Z,1.80
2018-06-18T10:32:02.290Z,2.07
2018-06-18T10:34:35.710Z,1.67
2018-06-18T10:37:09.177Z,1.70
2018-06-18T10:39:42.520Z,1.70
2018-06-18T10:42:15.886Z,2.17
2018-06-18T10:44:43.505Z,1.70
2018-06-18T10:47:11.086Z,1.30
2018-06-18T10:49:38.684Z,1.50
2018-06-18T10:52:06.273Z,1.90
2018-06-18T10:54:33.896Z,1.70
2018-06-18T10:57:01.584Z,1.67
2018-06-18T10:59:29.128Z,1.93
2018-06-18T11:01:56.744Z,2.00
2018-06-18T11:04:28.342Z,1.97
2018-06-18T11:06:55.935Z,2.00
2018-06-18T11:09:24.411Z,1.60
2018-06-18T11:11:52.188Z,2.17
2018-06-18T11:14:19.913Z,2.23
2018-06-18T11:16:53.466Z,2.10
2018-06-18T11:19:26.732Z,2.50
2018-06-18T11:22:00.229Z,2.77
2018-06-18T11:24:33.938Z,2.50
2018-06-18T11:27:01.556Z,2.70
2018-06-18T11:29:29.125Z,2.90
2018-06-18T11:31:56.700Z,2.90
2018-06-18T11:34:24.300Z,2.70
2018-06-18T11:36:51.911Z,2.80
2018-06-18T11:39:19.483Z,2.80
2018-06-18T11:41:49.993Z,2.90
2018-06-18T11:44:17.525Z,2.53
2018-06-18T11:46:45.127Z,2.97
2018-06-18T11:49:12.686Z,3.03
2018-06-18T11:51:40.304Z,2.60
2018-06-18T11:54:07.952Z,3.20
2018-06-18T11:56:35.523Z,2.80
2018-06-18T11:59:08.763Z,3.03
2018-06-18T12:01:42.121Z,2.93
2018-06-18T12:04:15.562Z,3.00
2018-06-18T12:06:49.047Z,3.00
2018-06-18T12:09:22.511Z,2.70
2018-06-18T12:11:50.345Z,2.93
2018-06-18T12:14:17.933Z,2.90
2018-06-18T12:16:45.554Z,2.70
2018-06-18T12:19:13.135Z,2.70
2018-06-18T12:21:41.044Z,3.17
2018-06-18T12:24:08.860Z,3.33
2018-06-18T12:26:36.625Z,2.73
2018-06-18T12:29:04.273Z,3.80
2018-06-18T12:31:31.869Z,3.13
2018-06-18T12:33:59.472Z,2.73
2018-06-18T12:36:27.112Z,3.20
2018-06-18T12:38:54.741Z,3.13
2018-06-18T12:41:22.361Z,2.73
2018-06-18T12:43:53.560Z,2.80
2018-06-18T12:46:27.057Z,2.63
2018-06-18T12:49:00.518Z,2.40
2018-06-18T12:51:34.044Z,2.70
2018-06-18T12:54:08.290Z,2.67
2018-06-18T12:56:41.689Z,3.00
2018-06-18T12:59:09.288Z,2.57
2018-06-18T13:01:40.712Z,2.40
2018-06-18T13:04:08.993Z,2.77
2018-06-18T13:06:36.598Z,2.43
2018-06-18T13:09:07.608Z,2.47
2018-06-18T13:11:36.152Z,2.17
2018-06-18T13:14:03.760Z,2.20
2018-06-18T13:16:31.406Z,2.30
2018-06-18T13:18:59.329Z,2.23
2018-06-18T13:21:26.965Z,2.10
2018-06-18T13:23:54.524Z,2.03
2018-06-18T13:26:22.132Z,1.77
2018-06-18T13:28:49.740Z,1.63
2018-06-18T13:31:17.377Z,1.80
2018-06-18T13:33:44.963Z,1.90
2018-06-18T13:36:12.605Z,2.10
2018-06-18T13:38:45.883Z,1.67
2018-06-18T13:41:19.333Z,1.60
2018-06-18T13:43:52.577Z,1.73
2018-06-18T13:46:26.008Z,1.67
2018-06-18T13:48:54.641Z,1.30
2018-06-18T13:51:23.016Z,1.30
2018-06-18T13:53:50.653Z,1.60
2018-06-18T13:56:18.452Z,1.50
2018-06-18T13:58:46.081Z,1.37
2018-06-18T14:01:13.827Z,1.43
2018-06-18T14:03:41.914Z,1.40
2018-06-18T14:06:09.572Z,1.40
2018-06-18T14:08:37.166Z,1.73
2018-06-18T14:11:04.801Z,1.50
2018-06-18T14:13:34.123Z,1.70
2018-06-18T14:16:01.954Z,1.67
2018-06-18T14:18:29.561Z,1.50
2018-06-18T14:20:57.179Z,1.40
2018-06-18T14:23:24.924Z,1.47
2018-06-18T14:25:52.606Z,1.47
2018-06-18T14:28:20.342Z,1.50
2018-06-18T14:30:54.057Z,1.60
2018-06-18T14:33:27.411Z,1.20
2018-06-18T14:36:00.788Z,1.50
2018-06-18T14:38:34.298Z,1.40
2018-06-18T14:41:02.029Z,1.47
2018-06-18T14:43:29.672Z,1.50
2018-06-18T14:48:32.002Z,1.47
2018-06-18T14:50:59.601Z,1.20
2018-06-18T14:53:27.195Z,1.30
2018-06-18T14:56:04.714Z,1.13
2018-06-18T14:58:32.287Z,1.23
2018-06-18T15:00:59.908Z,1.00
2018-06-18T15:03:27.476Z,1.27
2018-06-18T15:05:55.134Z,1.10
2018-06-18T15:08:22.809Z,1.07
2018-06-18T15:10:52.238Z,1.10
2018-06-18T15:13:19.837Z,1.00
2018-06-18T15:15:53.676Z,0.97
2018-06-18T15:18:21.417Z,1.20
2018-06-18T15:20:49.384Z,0.83
2018-06-18T15:23:17.003Z,1.20
2018-06-18T15:25:47.561Z,1.07
2018-06-18T15:28:15.174Z,0.93
2018-06-18T15:30:42.809Z,0.97
2018-06-18T15:33:10.511Z,0.90
2018-06-18T15:35:38.135Z,1.10
2018-06-18T15:38:05.856Z,0.90
2018-06-18T15:40:33.457Z,0.93
2018-06-18T15:43:01.155Z,1.17
2018-06-18T15:45:28.834Z,1.10
2018-06-18T15:47:57.328Z,1.10
2018-06-18T15:50:25.066Z,1.00
2018-06-18T15:52:52.672Z,0.90
2018-06-18T15:55:20.259Z,1.00
2018-06-18T15:57:47.929Z,1.20
2018-06-18T16:00:15.597Z,0.90
2018-06-18T16:02:43.201Z,1.37
2018-06-18T16:05:10.817Z,1.10
2018-06-18T16:07:38.458Z,1.17
2018-06-18T16:10:06.064Z,1.03
2018-06-18T16:12:33.780Z,1.13
2018-06-18T16:15:01.449Z,1.10
2018-06-18T16:17:29.092Z,1.13
2018-06-18T16:19:57.033Z,1.20
2018-06-18T16:22:24.642Z,1.17
2018-06-18T16:24:52.466Z,1.13
2018-06-18T16:27:20.077Z,0.83
2018-06-18T16:29:47.687Z,1.23
2018-06-18T16:32:15.351Z,1.10
2018-06-18T16:34:43.045Z,1.07
2018-06-18T16:37:10.765Z,1.17
2018-06-18T16:39:38.363Z,1.20
2018-06-18T16:42:06.040Z,1.40
2018-06-18T16:44:33.637Z,1.00
2018-06-18T16:47:01.219Z,1.03
2018-06-18T16:49:28.840Z,0.90
2018-06-18T16:51:56.519Z,1.00
2018-06-18T16:54:24.116Z,1.00
2018-06-18T16:56:51.761Z,0.97
2018-06-18T16:59:19.735Z,1.10
2018-06-18T17:01:47.312Z,1.13
2018-06-18T17:04:14.888Z,1.10
2018-06-18T17:06:42.532Z,0.90
2018-06-18T17:09:11.171Z,1.03
2018-06-18T17:11:38.862Z,1.13
2018-06-18T17:14:07.029Z,1.00
2018-06-18T17:16:34.751Z,0.90
2018-06-18T17:19:02.376Z,0.93
2018-06-18T17:21:30.018Z,1.07
2018-06-18T17:23:57.662Z,0.87
2018-06-18T17:26:25.317Z,1.00
2018-06-18T17:28:52.983Z,0.90
2018-06-18T17:31:21.881Z,1.00
2018-06-18T17:33:49.472Z,1.00
2018-06-18T17:36:17.116Z,0.80
2018-06-18T17:38:44.722Z,0.87
2018-06-18T17:41:12.325Z,1.00
2018-06-18T17:43:39.950Z,0.73
2018-06-18T17:46:07.577Z,0.93
2018-06-18T17:48:35.212Z,0.90
2018-06-18T17:51:02.879Z,1.00
2018-06-18T17:53:30.778Z,0.70
2018-06-18T17:55:59.389Z,0.70
2018-06-18T17:58:27.353Z,1.00
2018-06-18T18:00:55.568Z,1.10
2018-06-18T18:03:23.344Z,0.90
2018-06-18T18:05:51.237Z,0.90
2018-06-18T18:08:18.959Z,0.90
2018-06-18T18:10:46.737Z,0.80
2018-06-18T18:13:14.570Z,0.90
2018-06-18T18:15:42.143Z,1.10
2018-06-18T18:18:10.083Z,0.90
2018-06-18T18:20:38.358Z,0.90
2018-06-18T18:23:06.088Z,0.87
2018-06-18T18:25:34.460Z,1.00
2018-06-18T18:28:02.940Z,1.00
2018-06-18T18:30:30.773Z,1.00
2018-06-18T18:33:47.408Z,1.00
2018-06-18T18:36:15.345Z,1.10
2018-06-18T18:38:43.316Z,1.00
2018-06-18T18:41:10.981Z,0.90
2018-06-18T18:43:38.876Z,1.07
2018-06-18T18:46:06.518Z,1.10
2018-06-18T18:48:34.352Z,1.00
2018-06-18T18:51:03.038Z,1.10
2018-06-18T18:53:31.658Z,0.90
2018-06-18T18:57:18.516Z,0.90
2018-06-18T18:59:46.125Z,0.80
2018-06-18T19:02:14.280Z,1.10
2018-06-18T19:04:59.483Z,0.90
2018-06-18T19:07:38.310Z,1.20
2018-06-18T19:10:18.958Z,1.20
2018-06-18T19:12:47.319Z,1.20
2018-06-18T19:15:15.595Z,1.30
2018-06-18T19:17:43.442Z,1.17
2018-06-18T19:20:17.091Z,1.30
2018-06-18T19:22:45.369Z,1.33
2018-06-18T19:25:13.319Z,1.30
2018-06-18T19:27:41.678Z,1.30
2018-06-18T19:30:10.599Z,1.40
2018-06-18T19:32:40.145Z,1.10
2018-06-18T19:35:08.544Z,1.30
2018-06-18T19:37:36.351Z,1.10
2018-06-18T19:40:05.056Z,1.27
2018-06-18T19:42:32.700Z,1.30
2018-06-18T19:45:00.298Z,1.13
2018-06-18T19:47:37.334Z,1.40
2018-06-18T19:50:04.957Z,1.50
2018-06-18T19:52:32.770Z,1.50
2018-06-18T19:55:07.841Z,1.33
2018-06-18T19:57:35.719Z,1.67
2018-06-18T20:00:04.380Z,1.33
2018-06-18T20:02:33.691Z,1.60
2018-06-18T20:05:09.111Z,1.50
2018-06-18T20:07:43.775Z,1.50
2018-06-18T20:10:11.781Z,1.33
2018-06-18T20:12:39.468Z,1.80
2018-06-18T20:15:10.338Z,1.67
2018-06-18T20:17:38.129Z,1.30
2018-06-18T20:20:07.421Z,1.40
2018-06-18T20:22:35.246Z,1.50
2018-06-18T20:25:03.078Z,1.50
2018-06-18T20:27:30.855Z,1.47
2018-06-18T20:29:58.870Z,1.40
2018-06-18T20:32:26.452Z,1.30
2018-06-18T20:34:55.653Z,1.93
2018-06-18T20:37:23.827Z,1.70
2018-06-18T20:39:51.953Z,1.30
2018-06-18T20:42:20.378Z,1.60
2018-06-18T20:44:48.530Z,1.57
2018-06-18T20:47:16.568Z,1.60
2018-06-18T20:49:44.526Z,1.30
2018-06-18T20:52:12.861Z,1.40
2018-06-18T20:54:41.175Z,1.77
2018-06-18T20:57:09.221Z,1.50
2018-06-18T20:59:37.088Z,1.60
2018-06-18T21:02:04.965Z,1.40
2018-06-18T21:04:34.208Z,1.40
2018-06-18T21:07:02.245Z,1.40
2018-06-18T21:09:30.181Z,1.13
2018-06-18T21:11:57.804Z,1.50
2018-06-18T21:14:25.704Z,1.57
2018-06-18T21:16:53.956Z,1.50
2018-06-18T21:19:21.675Z,1.40
2018-06-18T21:21:49.876Z,1.60
2018-06-18T21:24:17.508Z,1.10
2018-06-18T21:26:45.125Z,1.40
2018-06-18T21:29:13.882Z,1.40
2018-06-18T21:31:41.574Z,1.47
2018-06-18T21:34:09.177Z,1.60
2018-06-18T21:36:36.847Z,1.40
2018-06-18T21:39:07.086Z,1.43
2018-06-18T21:41:34.705Z,2.00
2018-06-18T21:44:02.688Z,2.13
2018-06-18T21:46:30.625Z,1.87
2018-06-18T21:48:59.210Z,1.63
2018-06-18T21:51:27.048Z,1.80
2018-06-18T21:53:55.262Z,1.90
2018-06-18T21:56:23.659Z,1.50
2018-06-18T21:58:51.954Z,1.60
2018-06-18T22:01:47.112Z,1.73
2018-06-18T22:04:15.904Z,1.73
2018-06-18T22:06:44.426Z,1.77
2018-06-18T22:09:17.723Z,1.50
2018-06-18T22:11:49.407Z,1.67
2018-06-18T22:14:17.430Z,1.90
2018-06-18T22:16:45.460Z,1.73
2018-06-18T22:19:13.452Z,1.87
2018-06-18T22:21:41.328Z,1.90
2018-06-18T22:24:10.108Z,1.60
2018-06-18T22:26:38.018Z,1.60
2018-06-18T22:29:06.084Z,1.60
2018-06-18T22:31:34.133Z,1.77
2018-06-18T22:34:01.769Z,1.80
2018-06-18T22:36:29.399Z,1.97
2018-06-18T22:38:57.035Z,2.20
2018-06-18T22:41:24.705Z,2.00
2018-06-18T22:43:52.360Z,1.80
2018-06-18T22:46:20.024Z,1.93
2018-06-18T22:48:47.624Z,1.90
2018-06-18T22:51:15.300Z,1.93
2018-06-18T22:53:42.948Z,5.77
2018-06-18T22:56:10.567Z,2.20
2018-06-18T22:58:38.229Z,1.87
2018-06-18T23:01:05.843Z,1.67
2018-06-18T23:03:33.516Z,1.43
2018-06-18T23:06:01.228Z,1.80
2018-06-18T23:08:28.924Z,2.10
2018-06-18T23:10:56.501Z,2.40
2018-06-18T23:13:28.217Z,2.37
2018-06-18T23:15:55.816Z,2.40
2018-06-18T23:18:23.478Z,2.60
2018-06-18T23:20:51.159Z,3.10
2018-06-18T23:23:18.788Z,2.60
2018-06-18T23:25:46.977Z,2.33
2018-06-18T23:28:14.623Z,2.20
2018-06-18T23:30:42.359Z,2.20
2018-06-18T23:33:10.024Z,2.27
2018-06-18T23:35:37.685Z,2.07
2018-06-18T23:38:05.376Z,2.03
2018-06-18T23:40:32.976Z,1.80
2018-06-18T23:43:00.625Z,1.57
2018-06-18T23:45:28.258Z,1.77
2018-06-18T23:47:55.931Z,1.63
2018-06-18T23:50:23.633Z,1.50
2018-06-18T23:52:51.602Z,1.80
2018-06-18T23:55:19.245Z,1.50
2018-06-18T23:57:46.985Z,1.53
